Time;durP1;ratioP1;P1;durP2;ratioP2;P2;SDS_P1;SDS_P2;PMS_P1;PMS_P2;Temp;Humidity;BMP_temperature;BMP_pressure;BME280_temperature;BME280_humidity;BME280_pressure;Samples;Min_cycle;Max_cycle;Signal;HPM_P1;HPM_P2
2021/03/14 00:00:31;;;;;;;3.85;1.85;;;;;;;5.39;69.13;98115.59;5076368;28;20044;-46
2021/03/14 00:03:16;;;;;;;4.50;2.08;;;;;;;5.41;69.04;98117.28;5076318;28;20373;-46
2021/03/14 00:05:43;;;;;;;3.53;1.65;;;;;;;5.38;69.01;98106.09;5076059;28;20057;-46
2021/03/14 00:08:09;;;;;;;4.03;1.27;;;;;;;5.30;69.15;98107.25;5075555;28;20044;-46
2021/03/14 00:10:35;;;;;;;4.30;1.40;;;;;;;5.39;69.02;98106.94;5076187;28;20040;-46
2021/03/14 00:13:01;;;;;;;4.75;1.52;;;;;;;5.29;69.13;98113.31;5076444;28;20131;-46
2021/03/14 00:15:26;;;;;;;3.80;1.40;;;;;;;5.37;69.12;98126.94;5076416;28;20114;-46
2021/03/14 00:17:52;;;;;;;7.55;1.33;;;;;;;5.38;69.09;98126.88;5057834;28;20520;-46
2021/03/14 00:20:18;;;;;;;5.93;1.90;;;;;;;5.39;68.86;98125.13;5075466;28;20059;-46
2021/03/14 00:22:45;;;;;;;5.10;2.08;;;;;;;5.26;69.20;98116.84;5076316;28;20048;-46
2021/03/14 00:25:11;;;;;;;4.85;2.28;;;;;;;5.29;69.13;98108.13;5075443;28;20048;-46
2021/03/14 00:27:37;;;;;;;4.93;1.27;;;;;;;5.30;69.10;98113.28;5058830;28;20052;-46
2021/03/14 00:30:03;;;;;;;5.60;1.40;;;;;;;5.35;68.77;98103.59;5076204;28;20425;-46
2021/03/14 00:32:29;;;;;;;3.97;1.60;;;;;;;5.34;68.88;98111.44;5075990;28;20210;-46
2021/03/14 00:34:55;;;;;;;5.85;1.80;;;;;;;5.25;69.02;98114.31;5076090;28;20040;-45
2021/03/14 00:37:21;;;;;;;3.67;1.40;;;;;;;5.23;68.99;98100.53;5075949;28;20087;-46
2021/03/14 00:39:46;;;;;;;3.60;1.40;;;;;;;5.22;69.15;98104.88;5058683;28;20051;-46
2021/03/14 00:42:12;;;;;;;2.40;1.40;;;;;;;5.26;68.92;98098.69;5075890;28;20437;-46
2021/03/14 00:44:38;;;;;;;2.75;1.25;;;;;;;5.20;69.00;98093.72;5058357;28;20044;-46
2021/03/14 00:47:04;;;;;;;3.40;1.50;;;;;;;5.17;69.22;98088.59;5075578;28;20097;-46
2021/03/14 00:49:29;;;;;;;2.17;1.40;;;;;;;5.22;69.10;98096.25;5076042;28;20048;-45
2021/03/14 00:51:55;;;;;;;7.20;1.35;;;;;;;5.22;68.86;98091.88;5076386;28;20040;-46
2021/03/14 00:54:21;;;;;;;3.38;1.67;;;;;;;5.34;68.59;98080.28;5074956;28;20044;-46
2021/03/14 00:56:48;;;;;;;5.28;1.35;;;;;;;5.38;68.29;98080.13;5058665;28;20048;-46
2021/03/14 00:59:14;;;;;;;3.60;1.10;;;;;;;5.35;68.28;98080.22;5075726;28;20048;-46
2021/03/14 01:01:40;;;;;;;2.83;1.20;;;;;;;5.34;68.35;98077.69;5074840;28;20472;-46
2021/03/14 01:04:06;;;;;;;4.13;1.70;;;;;;;5.34;68.22;98081.13;5075963;28;20048;-46
2021/03/14 01:06:32;;;;;;;5.38;2.30;;;;;;;5.31;68.62;98078.63;5075524;28;20465;-46
2021/03/14 01:08:58;;;;;;;4.97;1.55;;;;;;;5.35;68.26;98075.03;5075046;28;20075;-46
2021/03/14 01:11:24;;;;;;;3.83;1.17;;;;;;;5.19;68.70;98071.22;5075083;28;20051;-46
2021/03/14 01:14:16;;;;;;;3.72;1.35;;;;;;;5.13;69.20;98068.81;5075503;28;20052;-46
2021/03/14 01:16:55;;;;;;;4.82;1.77;;;;;;;5.07;69.44;98066.41;5074950;28;20048;-46
2021/03/14 01:19:23;;;;;;;6.97;2.22;;;;;;;5.13;68.98;98068.81;5074952;28;20056;-46
2021/03/14 01:21:49;;;;;;;7.72;3.47;;;;;;;5.14;69.02;98075.72;5074944;28;20048;-46
2021/03/14 01:24:15;;;;;;;6.13;2.92;;;;;;;5.13;68.82;98066.22;5074907;28;20053;-46
2021/03/14 01:26:40;;;;;;;3.35;2.17;;;;;;;5.15;69.11;98067.88;5075741;28;20456;-46
2021/03/14 01:29:06;;;;;;;4.95;1.30;;;;;;;5.25;68.58;98070.19;5076035;28;20054;-46
2021/03/14 01:31:32;;;;;;;8.43;1.92;;;;;;;5.28;68.21;98060.56;5079162;28;20119;-46
2021/03/14 01:33:57;;;;;;;5.63;2.10;;;;;;;5.34;68.07;98062.13;5079120;28;20097;-45
2021/03/14 01:36:23;;;;;;;8.85;3.50;;;;;;;5.27;68.41;98058.88;5078189;28;20059;-46
2021/03/14 01:38:49;;;;;;;11.30;4.15;;;;;;;5.27;68.22;98066.66;5079007;28;20036;-46
2021/03/14 01:41:14;;;;;;;13.02;4.25;;;;;;;5.26;68.46;98064.94;5078988;28;20059;-46
2021/03/14 01:43:40;;;;;;;10.50;3.50;;;;;;;5.25;68.59;98070.19;5078887;28;20441;-46
2021/03/14 01:46:06;;;;;;;8.57;2.88;;;;;;;5.30;68.19;98068.31;5078285;28;20114;-46
2021/03/14 01:48:32;;;;;;;5.95;2.17;;;;;;;5.20;68.64;98067.75;5078848;28;20036;-46
2021/03/14 01:50:58;;;;;;;13.15;3.72;;;;;;;5.16;68.70;98064.38;5061532;28;20114;-46
2021/03/14 01:53:24;;;;;;;4.40;1.73;;;;;;;5.18;68.77;98068.69;5077973;28;20098;-46
2021/03/14 01:55:50;;;;;;;4.97;1.70;;;;;;;5.23;68.42;98064.19;5077795;28;20060;-46
2021/03/14 01:58:16;;;;;;;3.17;1.63;;;;;;;5.24;68.46;98063.31;5079234;28;20093;-46
2021/03/14 02:00:42;;;;;;;4.93;1.17;;;;;;;5.30;68.11;98087.34;5077792;28;20048;-46
2021/03/14 02:03:07;;;;;;;5.03;1.70;;;;;;;5.20;68.54;98085.03;5078578;28;20403;-46
2021/03/14 02:05:33;;;;;;;3.38;1.60;;;;;;;5.21;68.60;98084.16;5077616;28;20052;-46
2021/03/14 02:07:59;;;;;;;3.17;1.20;;;;;;;5.19;68.56;98080.75;5078516;28;20071;-46
2021/03/14 02:10:26;;;;;;;3.58;1.30;;;;;;;5.18;68.54;98089.44;5044261;28;20047;-46
2021/03/14 02:12:56;;;;;;;3.28;1.40;;;;;;;5.20;68.47;98092.84;5078345;28;20048;-46
2021/03/14 02:15:22;;;;;;;3.00;1.10;;;;;;;5.25;68.35;98080.56;5061317;28;20117;-46
2021/03/14 02:17:47;;;;;;;4.05;1.35;;;;;;;5.16;68.78;98092.06;5077420;28;20052;-46
2021/03/14 02:20:17;;;;;;;4.30;1.85;;;;;;;5.19;68.51;98091.13;5078565;28;20044;-46
2021/03/14 02:22:46;;;;;;;3.90;1.45;;;;;;;5.16;68.86;98089.47;5078237;28;20044;-46
2021/03/14 02:25:20;;;;;;;3.30;1.40;;;;;;;5.17;68.56;98086.00;5078389;28;20090;-45
2021/03/14 02:27:46;;;;;;;4.20;1.52;;;;;;;5.14;68.78;98091.28;5060952;28;20052;-46
2021/03/14 02:30:12;;;;;;;3.13;1.30;;;;;;;5.12;68.81;98088.72;5077438;28;20049;-46
2021/03/14 02:32:37;;;;;;;7.60;1.27;;;;;;;5.15;68.79;98090.38;5077460;28;20357;-46
2021/03/14 02:35:04;;;;;;;5.05;3.05;;;;;;;5.07;69.10;98098.41;5060765;28;20052;-46
2021/03/14 02:37:30;;;;;;;8.45;3.80;;;;;;;5.08;68.96;98097.50;5078188;28;20090;-46
2021/03/14 02:39:56;;;;;;;6.97;3.22;;;;;;;5.15;68.53;98104.22;5077634;28;20045;-46
2021/03/14 02:42:22;;;;;;;5.70;2.53;;;;;;;5.02;68.96;98102.03;5076470;28;20064;-46
2021/03/14 02:44:49;;;;;;;4.20;1.60;;;;;;;5.01;69.10;98097.75;5076911;28;20052;-46
2021/03/14 02:47:17;;;;;;;4.40;1.50;;;;;;;5.05;68.74;98097.59;5060508;28;20075;-45
2021/03/14 02:49:42;;;;;;;2.88;1.77;;;;;;;5.00;68.96;98096.03;5077042;28;20109;-46
2021/03/14 02:52:08;;;;;;;5.68;1.40;;;;;;;4.96;69.18;98084.88;5076806;28;20425;-46
2021/03/14 02:54:34;;;;;;;2.15;1.10;;;;;;;4.94;69.14;98084.09;5077335;28;20428;-46
2021/03/14 02:56:59;;;;;;;2.83;1.20;;;;;;;4.95;69.25;98079.75;5076980;28;20347;-46
2021/03/14 02:59:25;;;;;;;3.25;1.35;;;;;;;4.99;69.01;98082.22;5076648;28;20460;-46
2021/03/14 03:01:51;;;;;;;7.53;1.58;;;;;;;4.93;69.09;98087.56;5076634;28;20041;-46
2021/03/14 03:04:23;;;;;;;4.45;1.23;;;;;;;4.96;69.07;98092.69;5059880;28;20058;-46
2021/03/14 03:06:49;;;;;;;3.35;1.52;;;;;;;4.95;69.16;98092.75;5077511;28;20098;-46
2021/03/14 03:09:15;;;;;;;5.30;1.50;;;;;;;4.88;69.27;98099.84;5077822;28;20169;-46
2021/03/14 03:11:41;;;;;;;2.15;1.30;;;;;;;4.80;69.54;98091.44;5060065;28;20082;-46
2021/03/14 03:14:12;;;;;;;5.13;2.08;;;;;;;4.84;69.39;98095.63;5076616;28;20068;-46
2021/03/14 03:16:38;;;;;;;4.88;1.95;;;;;;;4.90;69.35;98098.88;5060201;28;20349;-46
2021/03/14 03:19:04;;;;;;;16.35;7.65;;;;;;;4.88;69.38;98098.09;5077128;28;20105;-46
2021/03/14 03:21:30;;;;;;;7.60;3.67;;;;;;;4.78;69.45;98098.41;5059516;28;20056;-46
2021/03/14 03:23:56;;;;;;;3.00;1.50;;;;;;;4.69;69.56;98109.91;5059828;28;20080;-46
2021/03/14 03:26:22;;;;;;;6.78;3.28;;;;;;;4.59;70.05;98101.53;5076362;28;20052;-46
2021/03/14 03:28:50;;;;;;;6.30;2.08;;;;;;;4.68;69.97;98108.22;5076340;28;20044;-46
2021/03/14 03:31:16;;;;;;;5.47;1.90;;;;;;;4.66;70.09;98109.97;5077028;28;20074;-46
2021/03/14 03:33:42;;;;;;;3.90;1.75;;;;;;;4.62;70.39;98127.38;5075993;28;20402;-46
2021/03/14 03:36:08;;;;;;;3.00;1.73;;;;;;;4.62;70.29;98121.34;5076703;28;20434;-46
2021/03/14 03:38:34;;;;;;;4.55;1.50;;;;;;;4.62;70.29;98123.94;5076928;28;20036;-46
2021/03/14 03:41:00;;;;;;;4.88;1.65;;;;;;;4.60;70.66;98126.56;5075860;28;20055;-46
2021/03/14 03:43:28;;;;;;;4.05;1.70;;;;;;;4.62;70.42;98131.72;5076622;28;20098;-46
2021/03/14 03:45:58;;;;;;;4.03;1.42;;;;;;;4.56;70.78;98129.28;5076854;28;20139;-46
2021/03/14 03:48:32;;;;;;;3.90;1.58;;;;;;;4.50;70.72;98119.09;5059233;28;20041;-46
2021/03/14 03:50:58;;;;;;;1.65;0.90;;;;;;;4.40;71.33;98121.91;5076754;28;20044;-46
2021/03/14 03:53:24;;;;;;;2.53;1.30;;;;;;;4.38;71.15;98123.69;5059298;28;20052;-46
2021/03/14 03:55:50;;;;;;;8.32;1.90;;;;;;;4.36;71.23;98120.31;5075506;28;20060;-46
2021/03/14 03:58:16;;;;;;;3.28;1.38;;;;;;;4.34;71.40;98109.13;5075580;28;20040;-46
2021/03/14 04:00:42;;;;;;;4.18;2.80;;;;;;;4.38;71.57;98107.28;5059933;28;20045;-46
2021/03/14 04:03:08;;;;;;;4.00;1.30;;;;;;;4.33;71.74;98099.66;5058853;28;20040;-46
2021/03/14 04:05:33;;;;;;;4.53;1.63;;;;;;;4.35;71.48;98097.00;5075404;28;20056;-46
2021/03/14 04:07:59;;;;;;;3.90;1.17;;;;;;;4.36;71.61;98098.72;5059064;28;20375;-46
2021/03/14 04:10:26;;;;;;;6.43;1.50;;;;;;;4.34;71.63;98103.09;5076465;28;20049;-46
2021/03/14 04:12:52;;;;;;;2.78;1.25;;;;;;;4.39;71.35;98094.31;5075624;28;20048;-46
2021/03/14 04:15:20;;;;;;;3.83;1.67;;;;;;;4.33;71.51;98091.03;5075345;28;20341;-46
2021/03/14 04:17:45;;;;;;;3.80;1.85;;;;;;;4.35;71.57;98095.25;5076746;28;20041;-46
2021/03/14 04:20:17;;;;;;;6.05;1.80;;;;;;;4.37;71.60;98088.31;5076147;28;20442;-46
2021/03/14 04:22:43;;;;;;;3.30;1.77;;;;;;;4.32;71.64;98082.41;5075899;28;20119;-46
2021/03/14 04:25:10;;;;;;;5.07;2.13;;;;;;;4.36;71.41;98089.19;5076127;28;20422;-46
2021/03/14 04:27:35;;;;;;;2.10;1.33;;;;;;;4.30;71.57;98080.75;5058721;28;20053;-45
2021/03/14 04:30:01;;;;;;;4.07;1.77;;;;;;;4.24;71.53;98080.91;5075992;28;20041;-46
2021/03/14 04:32:27;;;;;;;4.82;1.65;;;;;;;4.22;71.66;98080.94;5075657;28;20100;-46
2021/03/14 04:34:53;;;;;;;3.03;1.98;;;;;;;4.15;71.84;98085.44;5075135;28;20041;-46
2021/03/14 04:37:19;;;;;;;8.82;2.58;;;;;;;4.14;71.61;98090.66;5076443;28;20044;-46
2021/03/14 04:39:44;;;;;;;4.00;1.38;;;;;;;4.12;71.67;98082.06;5075355;28;20048;-45
2021/03/14 04:42:10;;;;;;;5.00;1.98;;;;;;;4.16;71.64;98086.28;5058394;28;20056;-46
2021/03/14 04:44:36;;;;;;;4.05;1.80;;;;;;;4.10;71.59;98078.69;5075004;28;20052;-46
2021/03/14 04:47:03;;;;;;;3.72;1.48;;;;;;;4.04;71.82;98076.25;5076394;28;20041;-46
2021/03/14 04:49:28;;;;;;;6.85;3.08;;;;;;;4.00;71.97;98078.06;5075743;28;20040;-46
2021/03/14 04:51:54;;;;;;;4.13;1.30;;;;;;;3.98;71.82;98077.25;5075860;28;20064;-46
2021/03/14 04:54:20;;;;;;;4.30;1.77;;;;;;;3.91;72.21;98071.38;5076071;28;20062;-46
2021/03/14 04:56:46;;;;;;;6.10;2.22;;;;;;;3.95;72.16;98082.50;5074921;28;20040;-46
2021/03/14 04:59:13;;;;;;;6.38;2.60;;;;;;;3.89;72.14;98075.75;5074916;28;20044;-46
2021/03/14 05:01:39;;;;;;;6.70;1.95;;;;;;;3.87;72.20;98087.06;5058308;28;20102;-45
2021/03/14 05:04:06;;;;;;;5.97;2.67;;;;;;;3.83;72.41;98099.19;5076306;28;20050;-45
2021/03/14 05:06:32;;;;;;;6.13;2.33;;;;;;;3.95;72.05;98075.59;5078677;28;20053;-46
2021/03/14 05:08:58;;;;;;;5.10;1.90;;;;;;;4.03;71.97;98087.47;5079810;28;20068;-46
2021/03/14 05:11:23;;;;;;;5.18;2.00;;;;;;;3.92;72.11;98086.03;5078667;28;20392;-46
2021/03/14 05:13:49;;;;;;;4.72;2.10;;;;;;;3.91;72.27;98083.50;5062126;28;20040;-46
2021/03/14 05:16:15;;;;;;;3.72;1.75;;;;;;;3.95;72.05;98080.78;5062261;28;20041;-46
2021/03/14 05:18:42;;;;;;;2.88;1.60;;;;;;;3.98;71.83;98095.38;5078467;28;20045;-46
2021/03/14 05:21:07;;;;;;;4.13;1.08;;;;;;;3.96;71.74;98095.44;5078460;28;20055;-46
2021/03/14 05:23:33;;;;;;;6.72;1.90;;;;;;;4.04;71.77;98100.41;5078741;28;20048;-46
2021/03/14 05:26:00;;;;;;;9.95;1.98;;;;;;;4.11;71.38;98101.94;5078331;28;20036;-46
2021/03/14 05:28:26;;;;;;;4.53;1.50;;;;;;;4.31;70.41;98109.19;5062230;28;20040;-46
2021/03/14 05:30:51;;;;;;;6.18;1.75;;;;;;;4.26;70.83;98116.25;5078204;28;20049;-46
2021/03/14 05:33:17;;;;;;;6.13;1.60;;;;;;;4.25;70.78;98117.13;5078288;28;20036;-46
2021/03/14 05:35:43;;;;;;;3.33;1.50;;;;;;;4.21;70.95;98121.56;5062172;28;20045;-46
2021/03/14 05:38:09;;;;;;;4.40;1.73;;;;;;;4.32;70.63;98121.28;5079400;28;20047;-46
2021/03/14 05:40:34;;;;;;;5.35;1.58;;;;;;;4.26;70.86;98128.34;5079271;28;20463;-46
2021/03/14 05:43:00;;;;;;;2.47;1.33;;;;;;;4.43;70.17;98123.59;5078100;28;20082;-46
2021/03/14 05:45:26;;;;;;;4.88;1.27;;;;;;;4.45;70.03;98121.78;5061315;28;20040;-46
2021/03/14 05:47:52;;;;;;;4.63;1.70;;;;;;;4.43;70.10;98128.78;5079119;28;20048;-46
2021/03/14 05:50:22;;;;;;;2.95;1.58;;;;;;;4.52;69.79;98127.66;5079039;28;20071;-46
2021/03/14 05:52:48;;;;;;;4.72;1.95;;;;;;;4.51;69.77;98119.03;5077868;28;20052;-46
2021/03/14 05:55:15;;;;;;;6.03;1.58;;;;;;;4.52;69.63;98120.75;5079055;28;20040;-46
2021/03/14 05:57:44;;;;;;;2.53;1.10;;;;;;;4.64;69.41;98112.59;5078741;28;20049;-45
2021/03/14 06:00:13;;;;;;;3.95;1.52;;;;;;;4.64;69.53;98119.53;5078686;28;20361;-46
2021/03/14 06:02:40;;;;;;;4.60;1.77;;;;;;;4.79;68.99;98115.69;5078630;28;20041;-46
2021/03/14 06:05:07;;;;;;;6.50;2.03;;;;;;;4.88;68.53;98112.81;5078397;28;20049;-46
2021/03/14 06:07:33;;;;;;;4.20;1.70;;;;;;;4.93;68.68;98106.59;5061500;28;20114;-46
2021/03/14 06:09:59;;;;;;;7.32;2.25;;;;;;;5.03;68.51;98106.31;5078703;28;20135;-46
2021/03/14 06:12:25;;;;;;;4.28;2.22;;;;;;;5.23;68.62;98111.78;5078735;28;20477;-46
2021/03/14 06:14:50;;;;;;;4.50;1.92;;;;;;;5.54;67.32;98119.47;5078445;28;20045;-46
2021/03/14 06:17:16;;;;;;;6.13;2.83;;;;;;;6.02;66.33;98118.81;5077187;28;20048;-46
2021/03/14 06:19:42;;;;;;;6.00;2.78;;;;;;;6.21;65.39;98120.78;5077369;28;20040;-46
2021/03/14 06:22:20;;;;;;;4.03;1.73;;;;;;;6.55;63.79;98126.50;5078848;28;20041;-46
2021/03/14 06:24:50;;;;;;;8.55;1.85;;;;;;;6.90;62.89;98123.53;5078875;28;20048;-46
2021/03/14 06:27:51;;;;;;;4.88;1.95;;;;;;;7.26;61.30;98139.53;5078114;28;20059;-46
2021/03/14 06:30:17;;;;;;;5.00;2.00;;;;;;;7.36;61.41;98138.28;5048528;28;20426;-46
2021/03/14 06:33:06;;;;;;;7.38;3.03;;;;;;;7.61;59.62;98147.75;5078254;28;20040;-46
2021/03/14 06:35:52;;;;;;;8.68;4.50;;;;;;;8.17;57.96;98148.06;5077811;28;20119;-47
2021/03/14 06:38:24;;;;;;;7.80;4.55;;;;;;;8.43;57.82;98148.75;5078251;28;20052;-47
2021/03/14 06:41:06;;;;;;;8.60;3.13;;;;;;;8.93;56.99;98152.69;5076977;28;20326;-46
2021/03/14 06:43:33;;;;;;;3.58;2.13;;;;;;;9.27;55.81;98152.88;5062049;28;20503;-47
2021/03/14 06:45:59;;;;;;;8.88;2.95;;;;;;;9.58;55.53;98154.88;5043768;28;20127;-46
2021/03/14 06:48:28;;;;;;;6.72;2.30;;;;;;;9.93;54.94;98162.81;5078296;28;20421;-47
2021/03/14 06:50:54;;;;;;;6.35;2.25;;;;;;;10.27;52.08;98163.84;5076716;28;20445;-46
2021/03/14 06:53:22;;;;;;;5.55;2.60;;;;;;;10.63;52.29;98166.38;5077965;28;20453;-47
2021/03/14 06:55:49;;;;;;;5.80;3.10;;;;;;;10.93;51.75;98158.69;5076998;28;20053;-47
2021/03/14 06:58:34;;;;;;;5.30;2.40;;;;;;;11.13;50.47;98147.16;5076724;28;20102;-47
2021/03/14 07:01:13;;;;;;;4.47;1.92;;;;;;;11.41;50.47;98148.28;5077708;28;20052;-47
2021/03/14 07:03:41;;;;;;;9.77;3.72;;;;;;;11.73;48.63;98143.03;5076961;28;20327;-47
2021/03/14 07:06:17;;;;;;;4.85;2.83;;;;;;;11.95;47.04;98137.44;5076390;28;20059;-47
2021/03/14 07:08:44;;;;;;;7.32;2.78;;;;;;;11.88;48.10;98131.69;5077625;28;20182;-47
2021/03/14 07:11:10;;;;;;;4.97;1.30;;;;;;;12.39;47.84;98124.38;5060039;28;20044;-47
2021/03/14 07:13:39;;;;;;;3.35;1.27;;;;;;;12.51;46.19;98113.16;5077542;28;20123;-47
2021/03/14 07:16:05;;;;;;;3.72;1.52;;;;;;;12.51;47.11;98110.53;5076971;28;20052;-47
2021/03/14 07:18:34;;;;;;;3.97;2.03;;;;;;;12.88;47.11;98092.53;5076227;28;20040;-47
2021/03/14 07:21:01;;;;;;;8.40;3.55;;;;;;;13.14;45.58;98093.53;5075211;28;20044;-47
2021/03/14 07:23:32;;;;;;;6.85;3.13;;;;;;;13.11;43.66;98088.47;5042267;28;20334;-47
2021/03/14 07:25:57;;;;;;;7.15;2.60;;;;;;;12.99;43.67;98090.06;5077001;28;20049;-47
2021/03/14 07:28:24;;;;;;;3.85;2.20;;;;;;;13.14;44.85;98101.44;5076911;28;20051;-47
2021/03/14 07:30:50;;;;;;;4.32;1.50;;;;;;;13.19;43.30;98115.13;5075987;28;20047;-47
2021/03/14 07:33:16;;;;;;;4.82;1.65;;;;;;;13.07;43.73;98139.56;5076729;28;20462;-47
2021/03/14 07:35:41;;;;;;;3.90;1.80;;;;;;;12.91;44.29;98171.19;5076807;28;20049;-47
2021/03/14 07:38:08;;;;;;;9.82;3.40;;;;;;;13.21;44.12;98180.75;5076782;28;20123;-47
2021/03/14 07:40:34;;;;;;;4.30;1.80;;;;;;;13.16;43.50;98185.44;5042683;28;20059;-47
2021/03/14 07:43:00;;;;;;;4.75;1.55;;;;;;;13.32;43.33;98196.72;5077251;28;20036;-47
2021/03/14 07:45:27;;;;;;;3.20;1.60;;;;;;;13.14;43.89;98187.34;5075742;28;20045;-47
2021/03/14 07:47:52;;;;;;;4.53;1.48;;;;;;;13.17;43.50;98197.66;5075706;28;20353;-47
2021/03/14 07:50:20;;;;;;;3.58;1.38;;;;;;;13.26;43.39;98211.13;5076437;28;20074;-47
2021/03/14 07:52:46;;;;;;;3.65;1.50;;;;;;;12.88;42.82;98209.94;5076556;28;20062;-47
2021/03/14 07:55:13;;;;;;;6.57;2.67;;;;;;;12.72;43.79;98221.34;5076006;28;20079;-47
2021/03/14 07:57:48;;;;;;;19.38;10.63;;;;;;;12.52;41.96;98233.00;5058911;28;20131;-47
2021/03/14 08:00:24;;;;;;;6.43;4.53;;;;;;;11.92;43.20;98248.66;5077520;28;20059;-47
2021/03/14 08:02:59;;;;;;;23.17;14.77;;;;;;;11.56;44.18;98251.47;5076649;28;20048;-47
2021/03/14 08:05:40;;;;;;;17.85;14.18;;;;;;;11.10;45.27;98259.97;5075554;28;20056;-47
2021/03/14 08:08:06;;;;;;;19.55;13.50;;;;;;;10.63;46.22;98273.72;5075513;28;20067;-47
2021/03/14 08:10:34;;;;;;;9.90;5.65;;;;;;;10.48;45.69;98266.59;5075633;28;20063;-47
2021/03/14 08:13:00;;;;;;;6.88;3.08;;;;;;;10.10;46.10;98269.25;5076248;28;20056;-47
2021/03/14 08:15:28;;;;;;;7.50;2.47;;;;;;;9.99;46.34;98263.69;5075239;28;20037;-47
2021/03/14 08:17:54;;;;;;;4.43;2.13;;;;;;;9.90;46.49;98262.34;5075261;28;20430;-47
2021/03/14 08:20:40;;;;;;;6.80;2.75;;;;;;;9.76;47.29;98260.38;5076422;28;20048;-46
2021/03/14 08:23:08;;;;;;;7.22;2.90;;;;;;;9.81;47.69;98270.63;5059003;28;20048;-57
2021/03/14 08:25:37;;;;;;;22.88;11.45;;;;;;;9.74;48.19;98283.13;5058885;28;20044;-56
2021/03/14 08:28:22;;;;;;;20.67;10.15;;;;;;;9.72;47.97;98281.53;5075261;28;20068;-57
2021/03/14 08:30:49;;;;;;;24.85;12.93;;;;;;;9.50;48.37;98281.63;5075398;28;20451;-56
2021/03/14 08:33:21;;;;;;;9.32;4.88;;;;;;;9.48;48.32;98289.53;5058916;28;20109;-57
2021/03/14 08:35:50;;;;;;;16.35;8.02;;;;;;;9.44;49.25;98284.53;5058903;28;20357;-56
2021/03/14 08:38:29;;;;;;;8.77;4.15;;;;;;;9.32;49.36;98294.59;5075590;28;20044;-56
2021/03/14 08:41:20;;;;;;;12.93;5.80;;;;;;;9.38;49.14;98283.03;5074943;28;20048;-56
2021/03/14 08:43:53;;;;;;;5.65;2.28;;;;;;;9.39;49.33;98295.16;5075338;28;20045;-57
2021/03/14 08:46:48;;;;;;;5.53;2.63;;;;;;;9.44;48.87;98287.97;5059249;28;20052;-56
2021/03/14 08:49:20;;;;;;;4.53;2.13;;;;;;;9.32;48.67;98284.13;5075031;28;20040;-56
2021/03/14 08:51:46;;;;;;;62.33;40.60;;;;;;;9.31;49.01;98295.50;5074980;28;20433;-58
2021/03/14 08:54:15;;;;;;;4.32;2.45;;;;;;;9.45;48.96;98294.03;5058288;28;20047;-56
2021/03/14 08:56:43;;;;;;;6.85;2.95;;;;;;;9.49;49.65;98299.09;5059008;28;20056;-56
2021/03/14 08:59:13;;;;;;;7.93;3.50;;;;;;;9.53;49.21;98292.78;5074891;28;20052;-57
2021/03/14 09:01:43;;;;;;;6.05;2.25;;;;;;;9.45;48.66;98294.88;5074877;28;20040;-56
2021/03/14 09:04:15;;;;;;;22.35;16.63;;;;;;;9.37;48.71;98299.63;5043133;28;20449;-55
2021/03/14 09:06:47;;;;;;;7.22;2.65;;;;;;;9.42;48.09;98292.41;5075199;28;20052;-55
2021/03/14 09:09:20;;;;;;;33.90;25.45;;;;;;;9.35;48.33;98302.28;5074900;28;20323;-56
2021/03/14 09:11:57;;;;;;;208.73;70.43;;;;;;;9.40;49.50;98298.66;5075080;28;20391;-56
2021/03/14 09:14:46;;;;;;;10.60;4.88;;;;;;;9.87;49.11;98306.09;5074667;28;20048;-56
2021/03/14 09:17:22;;;;;;;9.07;3.50;;;;;;;10.20;47.42;98306.28;5075104;28;20097;-57
2021/03/14 09:19:55;;;;;;;6.47;2.83;;;;;;;10.52;47.71;98307.41;5075520;28;20056;-57
2021/03/14 09:22:28;;;;;;;7.13;3.22;;;;;;;10.69;47.04;98311.81;5074991;28;20048;-57
2021/03/14 09:25:08;;;;;;;5.22;2.72;;;;;;;10.84;47.67;98308.44;5074864;28;20049;-57
2021/03/14 09:27:35;;;;;;;7.07;3.22;;;;;;;10.78;46.51;98327.06;5058077;28;20051;-57
2021/03/14 09:30:07;;;;;;;5.55;2.08;;;;;;;10.76;44.83;98340.25;5074806;28;20106;-57
2021/03/14 09:32:37;;;;;;;11.50;3.50;;;;;;;10.58;45.08;98338.53;5074679;28;20369;-57
2021/03/14 09:35:36;;;;;;;4.88;1.95;;;;;;;10.35;45.75;98344.03;5041541;28;20056;-56
2021/03/14 09:38:16;;;;;;;11.05;4.72;;;;;;;10.03;46.62;98346.31;5074597;28;20060;-57
2021/03/14 09:40:49;;;;;;;8.93;3.67;;;;;;;10.05;46.93;98353.19;5074604;28;20044;-57
2021/03/14 09:43:18;;;;;;;4.80;2.58;;;;;;;10.14;46.31;98343.22;5074722;28;20327;-57
2021/03/14 09:46:04;;;;;;;5.93;2.15;;;;;;;9.89;47.00;98340.88;5075267;28;20048;-57
2021/03/14 09:48:35;;;;;;;4.88;3.08;;;;;;;9.82;47.98;98343.78;5074708;28;20117;-56
2021/03/14 09:51:06;;;;;;;7.03;3.67;;;;;;;9.76;48.28;98344.06;5076327;28;20137;-56
2021/03/14 09:53:35;;;;;;;5.40;2.33;;;;;;;9.78;46.92;98354.44;5078268;28;20052;-57
2021/03/14 09:56:09;;;;;;;5.38;1.60;;;;;;;9.70;46.83;98356.56;5061759;28;20062;-56
2021/03/14 09:59:00;;;;;;;5.00;2.15;;;;;;;9.58;47.37;98358.78;5077884;28;20441;-56
2021/03/14 10:01:27;;;;;;;11.20;4.05;;;;;;;9.48;47.91;98359.25;5044972;28;20045;-56
2021/03/14 10:03:59;;;;;;;6.97;2.35;;;;;;;9.54;47.62;98352.00;5061227;28;20048;-56
2021/03/14 10:06:38;;;;;;;9.07;3.47;;;;;;;9.27;48.13;98364.50;5058038;28;20107;-56
2021/03/14 10:09:07;;;;;;;7.15;2.42;;;;;;;9.21;48.76;98361.28;5058239;28;20053;-56
2021/03/14 10:11:33;;;;;;;13.23;4.32;;;;;;;9.23;49.29;98357.72;5057825;28;20461;-56
2021/03/14 10:14:02;;;;;;;17.67;6.00;;;;;;;9.20;49.40;98363.06;5041774;28;20045;-56
2021/03/14 10:16:31;;;;;;;14.73;6.45;;;;;;;9.08;49.97;98364.41;5041572;28;20040;-56
2021/03/14 10:19:04;;;;;;;21.40;9.98;;;;;;;9.03;50.37;98365.50;5042135;28;20074;-56
2021/03/14 10:21:33;;;;;;;21.30;13.15;;;;;;;8.97;50.52;98355.31;5041366;28;20538;-56
2021/03/14 10:24:21;;;;;;;19.02;14.95;;;;;;;9.08;50.18;98358.34;5057685;28;20147;-56
2021/03/14 10:27:02;;;;;;;7.13;3.72;;;;;;;9.03;50.72;98355.06;5042616;28;20075;-57
2021/03/14 10:29:39;;;;;;;12.55;7.05;;;;;;;9.19;50.42;98352.66;5057549;28;20045;-57
2021/03/14 10:32:23;;;;;;;9.73;3.20;;;;;;;9.32;49.84;98348.59;5057088;28;20098;-57
2021/03/14 10:34:56;;;;;;;4.70;2.80;;;;;;;9.39;50.49;98350.03;5041338;28;20049;-57
2021/03/14 10:37:27;;;;;;;4.78;2.22;;;;;;;9.71;49.26;98339.94;5057097;28;20057;-57
2021/03/14 10:40:17;;;;;;;7.32;2.90;;;;;;;9.72;50.45;98342.50;5057686;28;20060;-57
2021/03/14 10:42:48;;;;;;;6.10;2.60;;;;;;;10.08;48.63;98331.28;5056810;28;20171;-57
2021/03/14 10:45:20;;;;;;;5.15;2.80;;;;;;;10.21;48.67;98332.41;5057201;28;20052;-57
2021/03/14 10:47:58;;;;;;;3.83;2.03;;;;;;;10.29;48.60;98337.31;5057212;28;20060;-57
2021/03/14 10:50:28;;;;;;;3.95;1.85;;;;;;;10.31;47.47;98332.00;5040372;28;20037;-57
2021/03/14 10:53:09;;;;;;;3.97;1.92;;;;;;;10.38;48.41;98329.03;5056751;28;20438;-57
2021/03/14 10:55:37;;;;;;;2.20;1.10;;;;;;;10.44;48.13;98365.38;5057069;28;20056;-57
2021/03/14 10:58:04;;;;;;;1.77;1.00;;;;;;;10.25;48.07;98357.50;5057012;28;20187;-57
2021/03/14 11:00:31;;;;;;;2.70;1.05;;;;;;;9.97;49.37;98364.91;5057100;28;20052;-57
2021/03/14 11:02:58;;;;;;;3.25;1.13;;;;;;;10.07;49.27;98371.41;5039649;28;20432;-57
2021/03/14 11:05:31;;;;;;;4.45;1.65;;;;;;;9.82;49.38;98375.16;5067706;28;20068;-57
2021/03/14 11:08:00;;;;;;;8.43;4.25;;;;;;;9.88;48.85;98375.78;5043701;28;20445;-57
2021/03/14 11:10:54;;;;;;;2.15;1.00;;;;;;;9.93;48.95;98390.34;5076886;28;20433;-57
2021/03/14 11:13:35;;;;;;;1.90;1.20;;;;;;;10.05;48.76;98384.59;5062529;28;20040;-57
2021/03/14 11:16:24;;;;;;;1.88;0.70;;;;;;;10.34;47.56;98386.81;5062769;28;20376;-57
2021/03/14 11:19:01;;;;;;;4.20;1.45;;;;;;;10.26;48.27;98393.22;5060403;28;20044;-57
2021/03/14 11:21:50;;;;;;;7.07;4.32;;;;;;;10.27;48.04;98402.81;5077303;28;20341;-57
2021/03/14 11:24:18;;;;;;;8.15;3.72;;;;;;;10.18;49.38;98405.81;5077300;28;20052;-57
2021/03/14 11:26:48;;;;;;;7.70;4.03;;;;;;;10.10;49.57;98415.75;5076145;28;20040;-57
2021/03/14 11:29:14;;;;;;;3.05;1.83;;;;;;;10.07;49.10;98428.97;5026819;28;20110;-58
2021/03/14 11:32:04;;;;;;;6.60;4.20;;;;;;;10.10;49.19;98421.00;5076810;28;20041;-57
2021/03/14 11:34:30;;;;;;;5.80;2.00;;;;;;;9.94;48.92;98423.44;5076263;28;20052;-57
2021/03/14 11:37:15;;;;;;;4.57;2.83;;;;;;;9.68;50.19;98437.66;5076849;28;20068;-57
2021/03/14 11:40:04;;;;;;;4.15;0.85;;;;;;;9.58;50.13;98446.81;5075922;28;20041;-56
2021/03/14 11:42:39;;;;;;;2.20;1.35;;;;;;;9.39;51.49;98438.88;5076170;28;20131;-57
2021/03/14 11:45:15;;;;;;;2.05;1.23;;;;;;;9.27;52.12;98450.72;5075672;28;20353;-57
2021/03/14 11:47:41;;;;;;;2.63;1.27;;;;;;;9.27;52.11;98455.09;5075828;28;20144;-57
2021/03/14 11:50:25;;;;;;;4.10;1.30;;;;;;;9.33;51.99;98453.06;5075521;28;20101;-57